createdAt,value
2022-09-01T00:00:02.595Z,100.00
2022-09-01T00:02:34.973Z,100.00
2022-09-01T00:05:07.411Z,100.00
2022-09-01T00:07:37.784Z,100.00
2022-09-01T00:10:09.102Z,100.00
2022-09-01T00:12:38.468Z,100.00
2022-09-01T00:15:09.607Z,100.00
2022-09-01T00:17:38.288Z,100.00
2022-09-01T00:20:07.976Z,100.00
2022-09-01T00:22:38.054Z,100.00
2022-09-01T00:25:07.903Z,100.00
2022-09-01T00:27:36.666Z,100.00
2022-09-01T00:30:06.966Z,100.00
2022-09-01T00:32:35.714Z,100.00
2022-09-01T00:35:04.951Z,100.00
2022-09-01T00:37:33.534Z,100.00
2022-09-01T00:40:03.831Z,100.00
2022-09-01T00:42:32.464Z,100.00
2022-09-01T00:45:01.328Z,100.00
2022-09-01T00:47:30.056Z,100.00
2022-09-01T00:49:59.894Z,100.00
2022-09-01T00:52:33.721Z,100.00
2022-09-01T00:55:08.784Z,100.00
2022-09-01T00:57:37.610Z,100.00
2022-09-01T01:00:12.216Z,100.00
2022-09-01T01:02:41.702Z,100.00
2022-09-01T01:05:14.314Z,100.00
2022-09-01T01:07:47.676Z,100.00
2022-09-01T01:10:21.775Z,100.00
2022-09-01T01:12:53.955Z,100.00
2022-09-01T01:15:24.709Z,100.00
2022-09-01T01:17:53.268Z,100.00
2022-09-01T01:20:44.131Z,100.00
2022-09-01T01:23:19.588Z,100.00
2022-09-01T01:25:53.303Z,100.00
2022-09-01T01:28:26.760Z,100.00
2022-09-01T01:30:59.219Z,100.00
2022-09-01T01:33:31.907Z,100.00
2022-09-01T01:36:01.417Z,100.00
2022-09-01T01:38:31.198Z,100.00
2022-09-01T01:41:02.421Z,100.00
2022-09-01T01:43:31.234Z,100.00
2022-09-01T01:46:02.672Z,100.00
2022-09-01T01:48:37.851Z,100.00
2022-09-01T01:51:07.031Z,100.00
2022-09-01T01:53:35.736Z,100.00
2022-09-01T01:56:06.403Z,100.00
2022-09-01T01:58:37.084Z,100.00
2022-09-01T02:01:11.783Z,100.00
2022-09-01T02:03:41.216Z,100.00
2022-09-01T02:06:12.118Z,100.00
2022-09-01T02:08:42.072Z,100.00
2022-09-01T02:11:13.168Z,100.00
2022-09-01T02:13:41.878Z,100.00
2022-09-01T02:16:12.839Z,100.00
2022-09-01T02:18:48.014Z,100.00
2022-09-01T02:21:20.574Z,100.00
2022-09-01T02:24:00.251Z,100.00
2022-09-01T02:26:33.312Z,100.00
2022-09-01T02:29:05.827Z,100.00
2022-09-01T02:31:39.232Z,100.00
2022-09-01T02:34:10.584Z,100.00
2022-09-01T02:36:44.177Z,100.00
2022-09-01T02:39:14.450Z,100.00
2022-09-01T02:41:44.646Z,100.00
2022-09-01T02:44:14.698Z,100.00
2022-09-01T02:46:45.384Z,100.00
2022-09-01T02:49:28.186Z,100.00
2022-09-01T02:51:59.576Z,100.00
2022-09-01T02:54:30.906Z,100.00
2022-09-01T02:57:01.665Z,100.00
2022-09-01T02:59:32.264Z,100.00
2022-09-01T03:02:02.329Z,100.00
2022-09-01T03:04:33.955Z,100.00
2022-09-01T03:07:03.164Z,100.00
2022-09-01T03:09:32.601Z,100.00
2022-09-01T03:12:02.763Z,100.00
2022-09-01T03:14:31.980Z,100.00
2022-09-01T03:17:01.516Z,100.00
2022-09-01T03:19:40.474Z,100.00
2022-09-01T03:22:09.978Z,100.00
2022-09-01T03:24:39.130Z,100.00
2022-09-01T03:27:11.658Z,100.00
2022-09-01T03:29:40.372Z,100.00
2022-09-01T03:32:09.643Z,100.00
2022-09-01T03:34:39.455Z,100.00
2022-09-01T03:37:09.750Z,100.00
2022-09-01T03:39:38.417Z,100.00
2022-09-01T03:42:12.145Z,100.00
2022-09-01T03:44:44.138Z,100.00
2022-09-01T03:47:16.980Z,100.00
2022-09-01T03:49:47.067Z,100.00
2022-09-01T03:52:17.270Z,100.00
2022-09-01T03:54:46.301Z,100.00
2022-09-01T03:57:16.266Z,100.00
2022-09-01T03:59:45.410Z,100.00
2022-09-01T04:02:15.015Z,100.00
2022-09-01T04:04:43.936Z,100.00
2022-09-01T04:07:15.519Z,100.00
2022-09-01T04:09:47.761Z,100.00
2022-09-01T04:12:17.841Z,100.00
2022-09-01T04:14:51.735Z,100.00
2022-09-01T04:17:38.216Z,100.00
2022-09-01T04:20:09.193Z,100.00
2022-09-01T04:22:38.209Z,100.00
2022-09-01T04:25:08.869Z,100.00
2022-09-01T04:27:40.395Z,100.00
2022-09-01T04:30:11.560Z,100.00
2022-09-01T04:32:41.624Z,100.00
2022-09-01T04:35:11.556Z,100.00
2022-09-01T04:37:40.239Z,100.00
2022-09-01T04:40:10.212Z,100.00
2022-09-01T04:42:42.016Z,100.00
2022-09-01T04:45:13.972Z,100.00
2022-09-01T04:47:46.643Z,100.00
2022-09-01T04:50:22.130Z,100.00
2022-09-01T04:53:11.980Z,100.00
2022-09-01T04:55:44.633Z,100.00
2022-09-01T04:58:18.528Z,100.00
2022-09-01T05:00:51.855Z,100.00
2022-09-01T05:03:24.032Z,100.00
2022-09-01T05:06:08.751Z,100.00
2022-09-01T05:08:43.483Z,100.00
2022-09-01T05:11:21.828Z,100.00
2022-09-01T05:13:57.624Z,100.00
2022-09-01T05:16:27.777Z,100.00
2022-09-01T05:18:58.328Z,100.00
2022-09-01T05:21:33.814Z,100.00
2022-09-01T05:24:03.813Z,100.00
2022-09-01T05:26:34.587Z,100.00
2022-09-01T05:29:10.574Z,100.00
2022-09-01T05:31:39.356Z,100.00
2022-09-01T05:34:09.782Z,100.00
2022-09-01T05:36:44.177Z,100.00
2022-09-01T05:39:14.788Z,100.00
2022-09-01T05:41:45.860Z,100.00
2022-09-01T05:44:16.816Z,100.00
2022-09-01T05:46:46.613Z,100.00
2022-09-01T05:49:18.890Z,100.00
2022-09-01T05:51:52.443Z,100.00
2022-09-01T05:54:27.296Z,100.00
2022-09-01T05:57:12.618Z,100.00
2022-09-01T05:59:53.953Z,100.00
2022-09-01T06:02:26.174Z,100.00
2022-09-01T06:04:57.322Z,100.00
2022-09-01T06:07:31.584Z,100.00
2022-09-01T06:10:03.318Z,100.00
2022-09-01T06:12:33.999Z,100.00
2022-09-01T06:15:04.603Z,100.00
2022-09-01T06:17:36.661Z,100.00
2022-09-01T06:20:10.500Z,97.96
2022-09-01T06:22:41.112Z,90.30
2022-09-01T06:25:11.414Z,81.98
2022-09-01T06:27:44.711Z,75.72
2022-09-01T06:30:23.062Z,70.22
2022-09-01T06:32:57.497Z,67.46
2022-09-01T06:35:29.838Z,63.95
2022-09-01T06:38:00.021Z,62.29
2022-09-01T06:41:01.441Z,60.60
2022-09-01T06:43:30.792Z,56.46
2022-09-01T06:46:03.800Z,56.11
2022-09-01T06:48:33.099Z,54.86
2022-09-01T06:51:18.415Z,54.16
2022-09-01T06:53:56.406Z,52.32
2022-09-01T06:56:32.200Z,51.38
2022-09-01T06:59:06.206Z,50.19
2022-09-01T07:01:39.422Z,49.05
2022-09-01T07:04:12.719Z,48.36
2022-09-01T07:10:17.761Z,46.19
2022-09-01T07:13:07.377Z,47.54
2022-09-01T07:18:32.076Z,45.23
2022-09-01T07:21:07.390Z,45.30
2022-09-01T07:24:10.546Z,44.82
2022-09-01T07:26:47.282Z,43.78
2022-09-01T07:29:17.634Z,42.67
2022-09-01T07:31:50.295Z,43.21
2022-09-01T07:42:59.166Z,48.27
2022-09-01T07:43:32.604Z,42.79
2022-09-01T07:49:29.505Z,41.52
2022-09-01T07:51:55.188Z,41.39
2022-09-01T07:54:30.469Z,38.79
2022-09-01T07:56:59.522Z,39.01
2022-09-01T07:59:29.903Z,37.72
2022-09-01T08:02:05.991Z,37.39
2022-09-01T08:04:50.091Z,38.76
2022-09-01T08:07:21.552Z,37.57
2022-09-01T08:09:50.101Z,37.11
2022-09-01T08:12:18.710Z,35.81
2022-09-01T08:15:12.926Z,34.94
2022-09-01T08:17:58.054Z,35.36
2022-09-01T08:20:30.482Z,34.56
2022-09-01T08:23:13.153Z,33.02
2022-09-01T08:25:44.039Z,34.79
2022-09-01T08:28:26.618Z,34.45
2022-09-01T08:30:56.499Z,33.54
2022-09-01T08:33:27.071Z,34.22
2022-09-01T08:35:57.182Z,36.24
2022-09-01T08:38:29.170Z,36.46
2022-09-01T08:41:00.399Z,36.08
2022-09-01T08:43:49.449Z,34.76
2022-09-01T08:46:27.457Z,35.69
2022-09-01T08:52:25.515Z,33.18
2022-09-01T08:55:04.018Z,32.00
2022-09-01T08:57:41.102Z,33.67
2022-09-01T09:00:24.859Z,33.11
2022-09-01T09:03:23.049Z,33.03
2022-09-01T09:06:04.584Z,33.12
2022-09-01T09:08:59.024Z,31.61
2022-09-01T09:12:04.312Z,31.88
2022-09-01T09:14:50.431Z,31.12
2022-09-01T09:17:23.471Z,29.97
2022-09-01T09:19:52.606Z,29.29
2022-09-01T09:22:27.243Z,29.81
2022-09-01T09:25:03.326Z,30.58
2022-09-01T09:27:35.718Z,31.34
2022-09-01T09:30:13.954Z,31.58
2022-09-01T09:33:31.011Z,31.86
2022-09-01T09:38:30.264Z,30.30
2022-09-01T09:41:18.811Z,29.15
2022-09-01T09:43:59.028Z,28.45
2022-09-01T09:46:36.132Z,28.46
2022-09-01T09:49:36.476Z,28.93
2022-09-01T09:52:19.000Z,28.24
2022-09-01T09:55:06.497Z,28.51
2022-09-01T09:57:41.546Z,27.75
2022-09-01T10:00:26.109Z,28.10
2022-09-01T10:03:08.022Z,27.83
2022-09-01T10:05:43.262Z,28.06
2022-09-01T10:08:16.467Z,28.65
2022-09-01T10:10:56.522Z,28.45
2022-09-01T10:13:31.408Z,27.32
2022-09-01T10:16:08.096Z,27.15
2022-09-01T10:18:46.210Z,27.87
2022-09-01T10:21:18.009Z,27.90
2022-09-01T10:23:46.601Z,27.10
2022-09-01T10:26:18.859Z,27.07
2022-09-01T10:29:06.610Z,25.71
2022-09-01T10:31:37.885Z,25.78
2022-09-01T10:34:08.607Z,27.28
2022-09-01T10:36:46.850Z,26.75
2022-09-01T10:39:22.220Z,28.93
2022-09-01T10:41:59.970Z,28.05
2022-09-01T10:44:56.234Z,27.09
2022-09-01T10:47:30.481Z,28.25
2022-09-01T10:50:07.849Z,28.23
2022-09-01T10:53:07.404Z,28.17
2022-09-01T10:55:59.087Z,26.60
2022-09-01T11:02:34.949Z,25.27
2022-09-01T11:05:17.004Z,25.93
2022-09-01T11:08:03.136Z,25.55
2022-09-01T11:10:55.760Z,25.07
2022-09-01T11:13:33.383Z,24.95
2022-09-01T11:16:52.135Z,22.76
2022-09-01T11:19:41.354Z,23.09
2022-09-01T11:22:26.288Z,25.80
2022-09-01T11:25:39.764Z,26.62
2022-09-01T11:28:41.590Z,28.45
2022-09-01T11:31:33.086Z,29.28
2022-09-01T11:34:20.740Z,26.21
2022-09-01T11:36:56.406Z,24.48
2022-09-01T11:39:34.411Z,27.20
2022-09-01T11:42:30.355Z,30.40
2022-09-01T11:45:04.937Z,28.90
2022-09-01T11:47:49.669Z,26.67
2022-09-01T11:50:21.500Z,26.76
2022-09-01T11:52:55.764Z,27.31
2022-09-01T11:55:43.515Z,26.49
2022-09-01T11:58:17.801Z,26.67
2022-09-01T12:00:47.497Z,25.81
2022-09-01T12:03:32.638Z,24.35
2022-09-01T12:06:04.227Z,24.96
2022-09-01T12:08:35.018Z,25.88
2022-09-01T12:11:08.504Z,26.32
2022-09-01T12:13:57.343Z,25.25
2022-09-01T12:16:26.187Z,23.75
2022-09-01T12:18:58.539Z,23.25
2022-09-01T12:21:40.464Z,23.74
2022-09-01T12:24:18.413Z,23.25
2022-09-01T12:26:51.332Z,23.80
2022-09-01T12:29:45.165Z,25.58
2022-09-01T12:32:16.534Z,27.39
2022-09-01T12:34:49.642Z,26.72
2022-09-01T12:37:29.656Z,24.70
2022-09-01T12:39:59.869Z,25.39
2022-09-01T12:42:38.924Z,24.11
2022-09-01T12:45:14.744Z,25.84
2022-09-01T12:47:51.816Z,26.02
2022-09-01T12:50:53.730Z,27.10
2022-09-01T12:53:30.289Z,28.48
2022-09-01T12:56:27.838Z,28.97
2022-09-01T12:59:14.399Z,27.14
2022-09-01T13:01:46.567Z,26.65
2022-09-01T13:04:41.948Z,26.53
2022-09-01T13:07:10.513Z,25.54
2022-09-01T13:09:39.013Z,27.05
2022-09-01T13:12:19.549Z,26.69
2022-09-01T13:14:49.925Z,27.12
2022-09-01T13:17:19.141Z,25.78
2022-09-01T13:19:47.749Z,27.11
2022-09-01T13:22:24.786Z,29.83
2022-09-01T13:24:53.394Z,30.68
2022-09-01T13:27:22.707Z,28.96
2022-09-01T13:29:53.270Z,27.47
2022-09-01T13:32:37.125Z,28.47
2022-09-01T13:35:07.014Z,27.14
2022-09-01T13:37:35.786Z,26.23
2022-09-01T13:40:07.726Z,26.32
2022-09-01T13:42:42.555Z,26.60
2022-09-01T13:45:16.379Z,26.54
2022-09-01T13:53:38.562Z,27.27
2022-09-01T13:56:37.596Z,28.42
2022-09-01T13:59:06.156Z,29.58
2022-09-01T14:01:38.148Z,29.02
2022-09-01T14:04:18.837Z,31.57
2022-09-01T14:06:47.421Z,31.80
2022-09-01T14:09:17.782Z,31.77
2022-09-01T14:11:54.961Z,32.93
2022-09-01T14:14:26.396Z,33.62
2022-09-01T14:16:56.571Z,34.83
2022-09-01T14:19:25.295Z,34.65
2022-09-01T14:21:57.039Z,35.12
2022-09-01T14:24:35.366Z,35.60
2022-09-01T14:27:06.463Z,35.29
2022-09-01T14:29:36.399Z,36.18
2022-09-01T14:32:22.517Z,37.11
2022-09-01T14:34:51.090Z,37.21
2022-09-01T14:37:19.775Z,37.49
2022-09-01T14:39:51.381Z,36.85
2022-09-01T14:42:28.646Z,36.31
2022-09-01T14:44:57.336Z,36.41
2022-09-01T14:47:28.574Z,36.05
2022-09-01T14:49:59.233Z,35.75
2022-09-01T14:52:32.733Z,35.83
2022-09-01T14:55:30.495Z,36.00
2022-09-01T14:58:10.985Z,35.75
2022-09-01T15:00:42.086Z,36.95
2022-09-01T15:03:12.574Z,36.93
2022-09-01T15:05:41.454Z,37.55
2022-09-01T15:08:35.880Z,38.72
2022-09-01T15:11:04.463Z,38.46
2022-09-01T15:13:33.057Z,38.30
2022-09-01T15:16:14.922Z,38.31
2022-09-01T15:18:44.954Z,38.63
2022-09-01T15:21:20.453Z,38.59
2022-09-01T15:23:50.955Z,38.11
2022-09-01T15:26:19.983Z,38.83
2022-09-01T15:28:49.792Z,38.38
2022-09-01T15:31:28.620Z,37.71
2022-09-01T15:34:13.611Z,37.81
2022-09-01T15:36:44.783Z,38.21
2022-09-01T15:39:13.394Z,37.52
2022-09-01T15:41:44.587Z,37.98
2022-09-01T15:44:23.057Z,37.58
2022-09-01T15:46:51.770Z,37.25
2022-09-01T15:49:21.759Z,37.84
2022-09-01T15:51:50.218Z,38.05
2022-09-01T15:54:30.702Z,38.03
2022-09-01T15:56:59.468Z,38.49
2022-09-01T15:59:29.314Z,38.67
2022-09-01T16:01:58.046Z,38.26
2022-09-01T16:04:32.076Z,38.66
2022-09-01T16:07:01.326Z,39.15
2022-09-01T16:09:30.134Z,39.34
2022-09-01T16:11:58.721Z,39.39
2022-09-01T16:14:28.282Z,40.53
2022-09-01T16:17:04.042Z,39.58
2022-09-01T16:19:49.252Z,39.99
2022-09-01T16:22:24.512Z,40.36
2022-09-01T16:25:00.799Z,40.84
2022-09-01T16:27:34.444Z,41.11
2022-09-01T16:30:07.975Z,40.41
2022-09-01T16:32:50.597Z,40.36
2022-09-01T16:35:24.381Z,40.04
2022-09-01T16:38:29.416Z,40.38
2022-09-01T16:41:05.067Z,40.53
2022-09-01T16:43:41.049Z,40.56
2022-09-01T16:46:20.214Z,40.21
2022-09-01T16:48:55.848Z,41.39
2022-09-01T16:51:32.520Z,40.59
2022-09-01T16:54:20.773Z,40.60
2022-09-01T16:56:56.314Z,40.47
2022-09-01T16:59:48.767Z,40.78
2022-09-01T17:02:32.255Z,40.36
2022-09-01T17:05:07.936Z,40.26
2022-09-01T17:08:08.039Z,41.34
2022-09-01T17:10:42.345Z,41.04
2022-09-01T17:13:39.925Z,41.22
2022-09-01T17:16:12.795Z,41.64
2022-09-01T17:19:00.136Z,41.25
2022-09-01T17:21:37.074Z,41.34
2022-09-01T17:24:16.817Z,41.30
2022-09-01T17:26:54.485Z,41.58
2022-09-01T17:29:29.112Z,41.14
2022-09-01T17:32:07.959Z,41.76
2022-09-01T17:34:51.895Z,41.94
2022-09-01T17:37:39.294Z,41.59
2022-09-01T17:40:20.494Z,42.12
2022-09-01T17:43:00.081Z,42.07
2022-09-01T17:45:36.041Z,42.63
2022-09-01T17:48:38.642Z,42.84
2022-09-01T17:51:15.816Z,42.98
2022-09-01T17:54:14.918Z,42.21
2022-09-01T17:56:59.420Z,42.64
2022-09-01T17:59:55.340Z,42.90
2022-09-01T18:02:58.465Z,43.96
2022-09-01T18:05:28.342Z,43.72
2022-09-01T18:08:05.801Z,44.10
2022-09-01T18:10:56.735Z,45.28
2022-09-01T18:13:52.319Z,45.08
2022-09-01T18:16:30.318Z,45.49
2022-09-01T18:19:03.653Z,45.16
2022-09-01T18:21:37.357Z,45.26
2022-09-01T18:24:19.265Z,45.70
2022-09-01T18:26:50.486Z,46.74
2022-09-01T18:29:23.087Z,48.59
2022-09-01T18:32:06.023Z,49.41
2022-09-01T18:34:58.957Z,50.81
2022-09-01T18:37:38.715Z,52.03
2022-09-01T18:40:17.108Z,53.17
2022-09-01T18:42:54.356Z,53.48
2022-09-01T18:45:36.424Z,55.06
2022-09-01T18:48:16.693Z,54.98
2022-09-01T18:50:52.368Z,55.02
2022-09-01T18:53:31.445Z,55.84
2022-09-01T18:56:13.816Z,57.08
2022-09-01T18:58:54.178Z,56.29
2022-09-01T19:01:32.752Z,57.42
2022-09-01T19:04:11.072Z,57.35
2022-09-01T19:06:52.837Z,58.19
2022-09-01T19:09:30.075Z,58.64
2022-09-01T19:12:13.863Z,59.13
2022-09-01T19:14:53.644Z,59.73
2022-09-01T19:17:43.029Z,60.29
2022-09-01T19:20:15.005Z,60.30
2022-09-01T19:22:48.138Z,60.00
2022-09-01T19:25:36.753Z,59.99
2022-09-01T19:28:12.684Z,60.65
2022-09-01T19:30:47.660Z,61.07
2022-09-01T19:33:22.352Z,61.86
2022-09-01T19:35:54.792Z,62.96
2022-09-01T19:38:27.678Z,62.99
2022-09-01T19:41:05.816Z,63.94
2022-09-01T19:43:38.585Z,63.89
2022-09-01T19:46:18.622Z,64.26
2022-09-01T19:48:52.728Z,64.18
2022-09-01T19:51:25.416Z,64.91
2022-09-01T19:54:01.182Z,65.22
2022-09-01T19:56:35.666Z,65.82
2022-09-01T19:59:13.915Z,65.60
2022-09-01T20:01:49.942Z,65.80
2022-09-01T20:04:29.196Z,66.11
2022-09-01T20:07:00.594Z,66.22
2022-09-01T20:09:35.703Z,64.87
2022-09-01T20:12:14.756Z,65.09
2022-09-01T20:15:04.215Z,64.95
2022-09-01T20:17:41.358Z,65.35
2022-09-01T20:20:14.484Z,65.25
2022-09-01T20:22:53.007Z,65.10
2022-09-01T20:25:25.789Z,66.17
2022-09-01T20:28:02.437Z,66.07
2022-09-01T20:30:39.770Z,67.44
2022-09-01T20:33:16.031Z,68.18
2022-09-01T20:35:49.958Z,68.99
2022-09-01T20:38:44.074Z,68.73
2022-09-01T20:41:19.828Z,68.75
2022-09-01T20:43:53.178Z,69.67
2022-09-01T20:46:23.972Z,70.18
2022-09-01T20:48:52.732Z,69.51
2022-09-01T20:51:29.304Z,70.34
2022-09-01T20:54:09.039Z,70.90
2022-09-01T20:56:45.425Z,68.15
2022-09-01T20:59:23.580Z,69.76
2022-09-01T21:01:59.178Z,70.19
2022-09-01T21:04:42.491Z,72.81
2022-09-01T21:07:17.147Z,71.49
2022-09-01T21:09:58.539Z,70.26
2022-09-01T21:12:36.360Z,70.19
2022-09-01T21:15:17.838Z,70.43
2022-09-01T21:17:55.973Z,71.31
2022-09-01T21:20:34.990Z,71.08
2022-09-01T21:23:06.602Z,72.29
2022-09-01T21:25:35.726Z,73.44
2022-09-01T21:28:06.684Z,72.93
2022-09-01T21:30:36.793Z,72.83
2022-09-01T21:33:06.174Z,73.09
2022-09-01T21:35:34.674Z,72.84
2022-09-01T21:38:04.655Z,72.87
2022-09-01T21:40:34.518Z,74.01
2022-09-01T21:43:05.949Z,73.40
2022-09-01T21:45:36.442Z,73.75
2022-09-01T21:48:05.605Z,73.90
2022-09-01T21:50:34.812Z,74.63
2022-09-01T21:53:05.007Z,75.26
2022-09-01T21:55:33.765Z,75.37
2022-09-01T21:58:02.565Z,74.69
2022-09-01T22:00:33.079Z,75.30
2022-09-01T22:03:02.000Z,75.13
2022-09-01T22:05:31.086Z,75.58
2022-09-01T22:08:01.412Z,75.35
2022-09-01T22:10:32.199Z,75.13
2022-09-01T22:13:03.473Z,75.74
2022-09-01T22:15:32.612Z,75.96
2022-09-01T22:18:01.553Z,75.69
2022-09-01T22:20:31.920Z,75.13
2022-09-01T22:23:02.180Z,73.24
2022-09-01T22:25:33.916Z,73.49
2022-09-01T22:28:03.999Z,73.65
2022-09-01T22:30:33.187Z,74.25
2022-09-01T22:33:02.563Z,73.93
2022-09-01T22:35:31.278Z,74.59
2022-09-01T22:37:59.806Z,74.49
2022-09-01T22:40:28.408Z,74.77
2022-09-01T22:42:58.340Z,70.05
2022-09-01T22:45:26.834Z,70.17
2022-09-01T22:47:55.379Z,67.79
2022-09-01T22:50:23.986Z,63.19
2022-09-01T22:52:52.511Z,64.44
2022-09-01T22:55:21.126Z,62.24
2022-09-01T22:57:49.695Z,65.65
2022-09-01T23:00:20.496Z,66.41
2022-09-01T23:02:53.331Z,67.49
2022-09-01T23:05:36.094Z,68.85
2022-09-01T23:08:05.136Z,66.67
2022-09-01T23:10:33.877Z,69.77
2022-09-01T23:13:02.580Z,70.86
2022-09-01T23:15:36.787Z,71.02
2022-09-01T23:18:11.493Z,71.03
2022-09-01T23:20:40.671Z,71.47
2022-09-01T23:23:09.149Z,71.90
2022-09-01T23:25:37.720Z,73.20
2022-09-01T23:28:06.246Z,73.88
2022-09-01T23:30:36.115Z,74.74
2022-09-01T23:33:05.094Z,66.63
2022-09-01T23:35:34.154Z,67.49
2022-09-01T23:38:02.768Z,69.35
2022-09-01T23:40:31.322Z,69.96
2022-09-01T23:42:59.973Z,70.29
2022-09-01T23:45:29.976Z,69.13
2022-09-01T23:48:06.136Z,63.34
2022-09-01T23:50:35.951Z,61.93
2022-09-01T23:53:04.518Z,59.94
2022-09-01T23:55:33.196Z,59.39
2022-09-01T23:58:01.679Z,60.07
